sensor_id;sensor_type;location;lat;lon;timestamp;pressure;altitude;pressure_sealevel;temperature;humidity
15260;BME280;34462;51.368;12.364;2022-07-29T00:01:30;20799.66;;;-141.84;46.36
15260;BME280;34462;51.368;12.364;2022-07-29T00:03:58;20830.16;;;-141.84;46.40
15260;BME280;34462;51.368;12.364;2022-07-29T00:06:26;20826.09;;;-141.84;46.42
15260;BME280;34462;51.368;12.364;2022-07-29T00:08:54;20830.16;;;-141.84;46.35
15260;BME280;34462;51.368;12.364;2022-07-29T00:11:22;20832.19;;;-141.84;46.57
15260;BME280;34462;51.368;12.364;2022-07-29T00:13:50;20813.88;;;-141.84;46.56
15260;BME280;34462;51.368;12.364;2022-07-29T00:16:19;20858.59;;;-141.84;46.46
15260;BME280;34462;51.368;12.364;2022-07-29T00:18:48;20824.06;;;-141.84;46.46
15260;BME280;34462;51.368;12.364;2022-07-29T00:21:16;20889.09;;;-141.84;45.94
15260;BME280;34462;51.368;12.364;2022-07-29T00:23:45;20866.75;;;-141.84;46.07
15260;BME280;34462;51.368;12.364;2022-07-29T00:26:13;20820.00;;;-141.84;46.34
15260;BME280;34462;51.368;12.364;2022-07-29T00:28:41;20791.53;;;-141.84;46.69
15260;BME280;34462;51.368;12.364;2022-07-29T00:31:09;20850.47;;;-141.84;46.58
15260;BME280;34462;51.368;12.364;2022-07-29T00:33:37;20848.44;;;-141.84;46.46
15260;BME280;34462;51.368;12.364;2022-07-29T00:36:07;20822.03;;;-141.84;46.35
15260;BME280;34462;51.368;12.364;2022-07-29T00:38:34;20769.16;;;-141.84;46.71
15260;BME280;34462;51.368;12.364;2022-07-29T00:41:02;20807.78;;;-141.84;46.70
15260;BME280;34462;51.368;12.364;2022-07-29T00:43:30;20799.66;;;-141.84;47.02
15260;BME280;34462;51.368;12.364;2022-07-29T00:45:59;20850.47;;;-141.84;46.54
15260;BME280;34462;51.368;12.364;2022-07-29T00:48:27;20779.31;;;-141.84;46.92
15260;BME280;34462;51.368;12.364;2022-07-29T00:50:57;20795.59;;;-141.84;46.98
15260;BME280;34462;51.368;12.364;2022-07-29T00:53:27;20777.28;;;-141.84;47.08
15260;BME280;34462;51.368;12.364;2022-07-29T00:55:56;20781.38;;;-141.84;47.42
15260;BME280;34462;51.368;12.364;2022-07-29T00:58:26;20759.00;;;-141.84;47.56
15260;BME280;34462;51.368;12.364;2022-07-29T01:00:54;20736.63;;;-141.84;47.67
15260;BME280;34462;51.368;12.364;2022-07-29T01:03:22;20783.41;;;-141.84;47.27
15260;BME280;34462;51.368;12.364;2022-07-29T01:05:51;20799.66;;;-141.84;47.46
15260;BME280;34462;51.368;12.364;2022-07-29T01:08:20;20765.09;;;-141.84;47.38
15260;BME280;34462;51.368;12.364;2022-07-29T01:10:51;20767.13;;;-141.84;47.61
15260;BME280;34462;51.368;12.364;2022-07-29T01:13:22;20777.28;;;-141.84;47.30
15260;BME280;34462;51.368;12.364;2022-07-29T01:15:56;20777.28;;;-141.84;47.28
15260;BME280;34462;51.368;12.364;2022-07-29T01:18:34;20761.03;;;-141.84;47.48
15260;BME280;34462;51.368;12.364;2022-07-29T01:21:27;20736.63;;;-141.84;47.83
15260;BME280;34462;51.368;12.364;2022-07-29T01:24:30;20736.63;;;-141.84;47.86
15260;BME280;34462;51.368;12.364;2022-07-29T01:27:24;20750.88;;;-141.84;47.76
15260;BME280;34462;51.368;12.364;2022-07-29T01:30:02;20761.03;;;-141.84;47.96
15260;BME280;34462;51.368;12.364;2022-07-29T01:32:36;20759.00;;;-141.84;47.66
15260;BME280;34462;51.368;12.364;2022-07-29T01:35:10;20761.03;;;-141.84;47.72
15260;BME280;34462;51.368;12.364;2022-07-29T01:37:48;20781.38;;;-141.84;48.00
15260;BME280;34462;51.368;12.364;2022-07-29T01:40:23;20726.47;;;-141.84;48.19
15260;BME280;34462;51.368;12.364;2022-07-29T01:42:55;20708.19;;;-141.84;48.33
15260;BME280;34462;51.368;12.364;2022-07-29T01:45:37;20732.56;;;-141.84;48.49
15260;BME280;34462;51.368;12.364;2022-07-29T01:48:13;20724.44;;;-141.84;48.37
15260;BME280;34462;51.368;12.364;2022-07-29T01:50:48;20710.22;;;-141.84;48.71
15260;BME280;34462;51.368;12.364;2022-07-29T01:53:25;20716.31;;;-141.84;48.86
15260;BME280;34462;51.368;12.364;2022-07-29T01:56:04;20726.47;;;-141.84;48.23
15260;BME280;34462;51.368;12.364;2022-07-29T01:58:36;20695.97;;;-141.84;48.57
15260;BME280;34462;51.368;12.364;2022-07-29T02:01:12;20720.38;;;-141.84;48.77
15260;BME280;34462;51.368;12.364;2022-07-29T02:03:43;20720.38;;;-141.84;48.94
15260;BME280;34462;51.368;12.364;2022-07-29T02:06:17;20706.16;;;-141.84;48.77
15260;BME280;34462;51.368;12.364;2022-07-29T02:08:49;20710.22;;;-141.84;48.79
15260;BME280;34462;51.368;12.364;2022-07-29T02:11:18;20710.22;;;-141.84;49.00
15260;BME280;34462;51.368;12.364;2022-07-29T02:13:47;20691.91;;;-141.84;49.19
15260;BME280;34462;51.368;12.364;2022-07-29T02:16:21;20706.16;;;-141.84;49.11
15260;BME280;34462;51.368;12.364;2022-07-29T02:18:53;20706.16;;;-141.84;48.83
15260;BME280;34462;51.368;12.364;2022-07-29T02:21:25;20708.19;;;-141.84;49.12
15260;BME280;34462;51.368;12.364;2022-07-29T02:23:58;20669.56;;;-141.84;48.74
15260;BME280;34462;51.368;12.364;2022-07-29T02:26:29;20734.59;;;-141.84;48.96
15260;BME280;34462;51.368;12.364;2022-07-29T02:29:00;20736.63;;;-141.84;48.69
15260;BME280;34462;51.368;12.364;2022-07-29T02:31:34;20675.66;;;-141.84;49.00
15260;BME280;34462;51.368;12.364;2022-07-29T02:34:08;20708.19;;;-141.84;49.31
15260;BME280;34462;51.368;12.364;2022-07-29T02:36:37;20683.78;;;-141.84;49.26
15260;BME280;34462;51.368;12.364;2022-07-29T02:39:08;20710.22;;;-141.84;49.21
15260;BME280;34462;51.368;12.364;2022-07-29T02:41:43;20681.75;;;-141.84;49.52
15260;BME280;34462;51.368;12.364;2022-07-29T02:44:13;20748.84;;;-141.84;49.19
15260;BME280;34462;51.368;12.364;2022-07-29T02:46:49;20714.28;;;-141.84;48.86
15260;BME280;34462;51.368;12.364;2022-07-29T02:49:32;20653.28;;;-141.84;49.55
15260;BME280;34462;51.368;12.364;2022-07-29T02:52:08;20708.19;;;-141.84;49.35
15260;BME280;34462;51.368;12.364;2022-07-29T02:54:42;20675.66;;;-141.84;49.39
15260;BME280;34462;51.368;12.364;2022-07-29T02:57:21;20683.78;;;-141.84;49.69
15260;BME280;34462;51.368;12.364;2022-07-29T02:59:52;20679.72;;;-141.84;49.54
15260;BME280;34462;51.368;12.364;2022-07-29T03:02:26;20716.31;;;-141.84;49.62
15260;BME280;34462;51.368;12.364;2022-07-29T03:04:59;20679.72;;;-141.84;49.49
15260;BME280;34462;51.368;12.364;2022-07-29T03:07:29;20704.13;;;-141.84;49.14
15260;BME280;34462;51.368;12.364;2022-07-29T03:09:58;20700.03;;;-141.84;48.96
15260;BME280;34462;51.368;12.364;2022-07-29T03:12:28;20647.19;;;-141.84;49.67
15260;BME280;34462;51.368;12.364;2022-07-29T03:14:57;20665.50;;;-141.84;49.88
15260;BME280;34462;51.368;12.364;2022-07-29T03:17:28;20663.47;;;-141.84;49.88
15260;BME280;34462;51.368;12.364;2022-07-29T03:19:59;20645.16;;;-141.84;49.53
15260;BME280;34462;51.368;12.364;2022-07-29T03:22:28;20683.78;;;-141.84;49.50
15260;BME280;34462;51.368;12.364;2022-07-29T03:24:56;20679.72;;;-141.84;49.76
15260;BME280;34462;51.368;12.364;2022-07-29T03:27:24;20661.44;;;-141.84;49.50
15260;BME280;34462;51.368;12.364;2022-07-29T03:29:52;20645.16;;;-141.84;49.66
15260;BME280;34462;51.368;12.364;2022-07-29T03:32:20;20671.59;;;-141.84;49.62
15260;BME280;34462;51.368;12.364;2022-07-29T03:34:52;20663.47;;;-141.84;49.89
15260;BME280;34462;51.368;12.364;2022-07-29T03:37:20;20667.53;;;-141.84;49.83
15260;BME280;34462;51.368;12.364;2022-07-29T03:39:50;20637.03;;;-141.84;50.06
15260;BME280;34462;51.368;12.364;2022-07-29T03:42:23;20649.22;;;-141.84;50.25
15260;BME280;34462;51.368;12.364;2022-07-29T03:45:00;20635.00;;;-141.84;50.16
15260;BME280;34462;51.368;12.364;2022-07-29T03:47:31;20639.06;;;-141.84;50.07
15260;BME280;34462;51.368;12.364;2022-07-29T03:50:21;20610.59;;;-141.84;50.36
15260;BME280;34462;51.368;12.364;2022-07-29T03:52:49;20592.31;;;-141.84;50.79
15260;BME280;34462;51.368;12.364;2022-07-29T03:55:18;20606.53;;;-141.84;50.90
15260;BME280;34462;51.368;12.364;2022-07-29T03:57:48;20626.88;;;-141.84;50.81
15260;BME280;34462;51.368;12.364;2022-07-29T04:00:18;20620.78;;;-141.84;50.80
15260;BME280;34462;51.368;12.364;2022-07-29T04:02:47;20641.09;;;-141.84;51.00
15260;BME280;34462;51.368;12.364;2022-07-29T04:05:17;20643.13;;;-141.84;50.85
15260;BME280;34462;51.368;12.364;2022-07-29T04:07:47;20590.28;;;-141.84;50.63
15260;BME280;34462;51.368;12.364;2022-07-29T04:10:18;20643.13;;;-141.84;50.38
15260;BME280;34462;51.368;12.364;2022-07-29T04:12:58;20661.44;;;-141.84;50.02
15260;BME280;34462;51.368;12.364;2022-07-29T04:15:26;20618.72;;;-141.84;50.15
15260;BME280;34462;51.368;12.364;2022-07-29T04:17:57;20649.22;;;-141.84;50.40
15260;BME280;34462;51.368;12.364;2022-07-29T04:20:27;20661.44;;;-141.84;49.89
15260;BME280;34462;51.368;12.364;2022-07-29T04:22:55;20651.25;;;-141.84;49.86
15260;BME280;34462;51.368;12.364;2022-07-29T04:25:23;20679.72;;;-141.84;49.46
15260;BME280;34462;51.368;12.364;2022-07-29T04:27:52;20689.88;;;-141.84;49.10
15260;BME280;34462;51.368;12.364;2022-07-29T04:30:30;20710.22;;;-141.84;48.76
15260;BME280;34462;51.368;12.364;2022-07-29T04:32:59;20708.19;;;-141.84;48.99
15260;BME280;34462;51.368;12.364;2022-07-29T04:35:30;20695.97;;;-141.84;48.78
15260;BME280;34462;51.368;12.364;2022-07-29T04:38:06;20704.13;;;-141.84;48.91
15260;BME280;34462;51.368;12.364;2022-07-29T04:40:43;20695.97;;;-141.84;48.98
15260;BME280;34462;51.368;12.364;2022-07-29T04:43:13;20708.19;;;-141.84;48.92
15260;BME280;34462;51.368;12.364;2022-07-29T04:45:41;20708.19;;;-141.84;48.50
15260;BME280;34462;51.368;12.364;2022-07-29T04:48:10;20720.38;;;-141.84;48.24
15260;BME280;34462;51.368;12.364;2022-07-29T04:50:40;20736.63;;;-141.84;48.16
15260;BME280;34462;51.368;12.364;2022-07-29T04:53:08;20736.63;;;-141.84;48.38
15260;BME280;34462;51.368;12.364;2022-07-29T04:55:36;20736.63;;;-141.84;48.55
15260;BME280;34462;51.368;12.364;2022-07-29T04:58:05;20746.81;;;-141.84;47.71
15260;BME280;34462;51.368;12.364;2022-07-29T05:00:34;20771.19;;;-141.84;47.86
15260;BME280;34462;51.368;12.364;2022-07-29T05:03:02;20744.78;;;-141.84;48.03
15260;BME280;34462;51.368;12.364;2022-07-29T05:05:30;20728.50;;;-141.84;48.32
15260;BME280;34462;51.368;12.364;2022-07-29T05:08:00;20767.13;;;-141.84;47.79
15260;BME280;34462;51.368;12.364;2022-07-29T05:10:28;20801.69;;;-141.84;47.36
15260;BME280;34462;51.368;12.364;2022-07-29T05:12:56;20872.84;;;-141.84;46.62
15260;BME280;34462;51.368;12.364;2022-07-29T05:15:24;20862.69;;;-141.84;46.49
15260;BME280;34462;51.368;12.364;2022-07-29T05:17:52;20895.19;;;-141.84;46.31
15260;BME280;34462;51.368;12.364;2022-07-29T05:20:20;20883.00;;;-141.84;45.82
15260;BME280;34462;51.368;12.364;2022-07-29T05:22:52;20948.06;;;-141.84;45.19
15260;BME280;34462;51.368;12.364;2022-07-29T05:25:22;20984.66;;;-141.84;45.39
15260;BME280;34462;51.368;12.364;2022-07-29T05:28:10;21019.22;;;-141.84;45.28
15260;BME280;34462;51.368;12.364;2022-07-29T05:30:38;21000.91;;;-141.84;44.79
15260;BME280;34462;51.368;12.364;2022-07-29T05:33:07;20992.78;;;-141.84;45.08
15260;BME280;34462;51.368;12.364;2022-07-29T05:35:55;21015.16;;;-141.84;44.71
15260;BME280;34462;51.368;12.364;2022-07-29T05:38:26;20984.66;;;-141.84;45.51
15260;BME280;34462;51.368;12.364;2022-07-29T05:40:58;21031.41;;;-141.84;45.30
15260;BME280;34462;51.368;12.364;2022-07-29T05:43:26;21033.44;;;-141.84;45.01
15260;BME280;34462;51.368;12.364;2022-07-29T05:45:55;21031.41;;;-141.84;44.62
15260;BME280;34462;51.368;12.364;2022-07-29T05:48:24;21057.84;;;-141.84;44.55
15260;BME280;34462;51.368;12.364;2022-07-29T05:50:52;21080.19;;;-141.84;44.25
15260;BME280;34462;51.368;12.364;2022-07-29T05:53:20;21000.91;;;-141.84;44.62
15260;BME280;34462;51.368;12.364;2022-07-29T05:55:49;21011.09;;;-141.84;44.55
15260;BME280;34462;51.368;12.364;2022-07-29T05:58:18;20998.88;;;-141.84;44.70
15260;BME280;34462;51.368;12.364;2022-07-29T06:00:47;21096.47;;;-141.84;44.42
15260;BME280;34462;51.368;12.364;2022-07-29T06:03:15;21041.56;;;-141.84;44.39
15260;BME280;34462;51.368;12.364;2022-07-29T06:05:43;21017.19;;;-141.84;44.47
15260;BME280;34462;51.368;12.364;2022-07-29T06:08:11;21055.81;;;-141.84;44.40
15260;BME280;34462;51.368;12.364;2022-07-29T06:10:39;21047.69;;;-141.84;44.19
15260;BME280;34462;51.368;12.364;2022-07-29T06:13:07;21047.69;;;-141.84;44.24
15260;BME280;34462;51.368;12.364;2022-07-29T06:15:37;21045.63;;;-141.84;44.35
15260;BME280;34462;51.368;12.364;2022-07-29T06:18:05;21096.47;;;-141.84;44.02
15260;BME280;34462;51.368;12.364;2022-07-29T06:20:36;21055.81;;;-141.84;44.26
15260;BME280;34462;51.368;12.364;2022-07-29T06:23:05;21051.75;;;-141.84;44.23
15260;BME280;34462;51.368;12.364;2022-07-29T06:25:33;21043.59;;;-141.84;44.54
15260;BME280;34462;51.368;12.364;2022-07-29T06:28:03;21021.25;;;-141.84;44.21
15260;BME280;34462;51.368;12.364;2022-07-29T06:30:32;21057.84;;;-141.84;44.52
15260;BME280;34462;51.368;12.364;2022-07-29T06:33:02;21131.03;;;-141.84;43.66
15260;BME280;34462;51.368;12.364;2022-07-29T06:35:33;21086.31;;;-141.84;43.62
15260;BME280;34462;51.368;12.364;2022-07-29T06:38:07;21155.44;;;-141.84;43.26
15260;BME280;34462;51.368;12.364;2022-07-29T06:40:55;21151.34;;;-141.84;43.37
15260;BME280;34462;51.368;12.364;2022-07-29T06:43:33;21151.34;;;-141.84;43.38
15260;BME280;34462;51.368;12.364;2022-07-29T06:46:19;21192.03;;;-141.84;43.05
15260;BME280;34462;51.368;12.364;2022-07-29T06:48:49;21187.97;;;-141.84;43.09
15260;BME280;34462;51.368;12.364;2022-07-29T06:51:19;21212.34;;;-141.84;42.91
15260;BME280;34462;51.368;12.364;2022-07-29T06:53:50;21279.44;;;-141.84;42.38
15260;BME280;34462;51.368;12.364;2022-07-29T06:56:28;21356.69;;;-141.84;41.42
15260;BME280;34462;51.368;12.364;2022-07-29T06:58:56;21370.94;;;-141.84;41.26
15260;BME280;34462;51.368;12.364;2022-07-29T07:01:27;21431.94;;;-141.84;41.17
15260;BME280;34462;51.368;12.364;2022-07-29T07:03:56;21427.88;;;-141.84;41.25
15260;BME280;34462;51.368;12.364;2022-07-29T07:06:25;21531.56;;;-141.84;40.63
15260;BME280;34462;51.368;12.364;2022-07-29T07:08:53;21590.53;;;-141.84;39.74
15260;BME280;34462;51.368;12.364;2022-07-29T07:11:21;21698.28;;;-141.84;39.08
15260;BME280;34462;51.368;12.364;2022-07-29T07:13:49;21761.31;;;-141.84;38.46
15260;BME280;34462;51.368;12.364;2022-07-29T07:16:18;21816.22;;;-141.84;37.91
15260;BME280;34462;51.368;12.364;2022-07-29T07:18:46;21842.66;;;-141.84;37.79
15260;BME280;34462;51.368;12.364;2022-07-29T07:21:15;21836.56;;;-141.84;37.69
15260;BME280;34462;51.368;12.364;2022-07-29T07:23:45;21775.56;;;-141.84;37.93
15260;BME280;34462;51.368;12.364;2022-07-29T07:26:14;21710.50;;;-141.84;38.00
15260;BME280;34462;51.368;12.364;2022-07-29T07:28:42;21661.69;;;-141.84;38.75
15260;BME280;34462;51.368;12.364;2022-07-29T07:31:10;21610.84;;;-141.84;38.80
15260;BME280;34462;51.368;12.364;2022-07-29T07:33:39;21551.91;;;-141.84;39.15
15260;BME280;34462;51.368;12.364;2022-07-29T07:36:07;21523.44;;;-141.84;39.54
15260;BME280;34462;51.368;12.364;2022-07-29T07:38:37;21537.66;;;-141.84;39.96
15260;BME280;34462;51.368;12.364;2022-07-29T07:41:05;21555.97;;;-141.84;39.95
15260;BME280;34462;51.368;12.364;2022-07-29T07:43:33;21533.59;;;-141.84;39.88
15260;BME280;34462;51.368;12.364;2022-07-29T07:46:01;21631.19;;;-141.84;39.82
15260;BME280;34462;51.368;12.364;2022-07-29T07:48:29;21555.97;;;-141.84;39.73
15260;BME280;34462;51.368;12.364;2022-07-29T07:50:57;21594.59;;;-141.84;39.58
15260;BME280;34462;51.368;12.364;2022-07-29T07:53:25;21545.78;;;-141.84;39.96
15260;BME280;34462;51.368;12.364;2022-07-29T07:55:57;21562.06;;;-141.84;40.24
15260;BME280;34462;51.368;12.364;2022-07-29T07:58:36;21631.19;;;-141.84;39.84
15260;BME280;34462;51.368;12.364;2022-07-29T08:01:05;21584.44;;;-141.84;39.97
15260;BME280;34462;51.368;12.364;2022-07-29T08:03:33;21570.19;;;-141.84;40.09
15260;BME280;34462;51.368;12.364;2022-07-29T08:06:02;21558.00;;;-141.84;40.14
15260;BME280;34462;51.368;12.364;2022-07-29T08:08:31;21596.63;;;-141.84;40.00
15260;BME280;34462;51.368;12.364;2022-07-29T08:11:00;21623.06;;;-141.84;39.89
15260;BME280;34462;51.368;12.364;2022-07-29T08:13:36;21612.88;;;-141.84;39.71
15260;BME280;34462;51.368;12.364;2022-07-29T08:16:06;21582.38;;;-141.84;39.47
15260;BME280;34462;51.368;12.364;2022-07-29T08:18:43;21661.69;;;-141.84;39.62
15260;BME280;34462;51.368;12.364;2022-07-29T08:21:12;21614.94;;;-141.84;39.68
15260;BME280;34462;51.368;12.364;2022-07-29T08:23:42;21639.31;;;-141.84;39.63
15260;BME280;34462;51.368;12.364;2022-07-29T08:26:25;21671.84;;;-141.84;39.47
15260;BME280;34462;51.368;12.364;2022-07-29T08:28:54;21682.03;;;-141.84;39.53
15260;BME280;34462;51.368;12.364;2022-07-29T08:31:22;21696.25;;;-141.84;38.93
15260;BME280;34462;51.368;12.364;2022-07-29T08:33:50;21694.22;;;-141.84;39.16
15260;BME280;34462;51.368;12.364;2022-07-29T08:36:18;21741.00;;;-141.84;38.60
15260;BME280;34462;51.368;12.364;2022-07-29T08:38:47;21771.50;;;-141.84;38.66
15260;BME280;34462;51.368;12.364;2022-07-29T08:41:17;21802.00;;;-141.84;38.41
15260;BME280;34462;51.368;12.364;2022-07-29T08:43:48;21848.75;;;-141.84;38.28
15260;BME280;34462;51.368;12.364;2022-07-29T08:46:17;21891.47;;;-141.84;37.94
15260;BME280;34462;51.368;12.364;2022-07-29T08:48:46;21921.97;;;-141.84;37.67
15260;BME280;34462;51.368;12.364;2022-07-29T08:51:17;21869.09;;;-141.84;37.45
15260;BME280;34462;51.368;12.364;2022-07-29T08:53:47;21942.31;;;-141.84;37.70
15260;BME280;34462;51.368;12.364;2022-07-29T08:56:17;21944.34;;;-141.84;37.13
15260;BME280;34462;51.368;12.364;2022-07-29T08:58:49;21987.03;;;-141.84;37.18
15260;BME280;34462;51.368;12.364;2022-07-29T09:01:24;22001.28;;;-141.84;37.12
15260;BME280;34462;51.368;12.364;2022-07-29T09:04:06;22013.47;;;-141.84;36.95
15260;BME280;34462;51.368;12.364;2022-07-29T09:06:43;22046.00;;;-141.84;36.67
15260;BME280;34462;51.368;12.364;2022-07-29T09:09:13;22078.53;;;-141.84;36.51
15260;BME280;34462;51.368;12.364;2022-07-29T09:11:42;22123.28;;;-141.84;36.36
15260;BME280;34462;51.368;12.364;2022-07-29T09:14:13;22151.75;;;-141.84;36.14
15260;BME280;34462;51.368;12.364;2022-07-29T09:16:50;22188.34;;;-141.84;35.91
15260;BME280;34462;51.368;12.364;2022-07-29T09:19:26;22229.03;;;-141.84;35.82
15260;BME280;34462;51.368;12.364;2022-07-29T09:21:57;22208.69;;;-141.84;35.69
15260;BME280;34462;51.368;12.364;2022-07-29T09:24:27;22251.41;;;-141.84;35.91
15260;BME280;34462;51.368;12.364;2022-07-29T09:26:55;22196.50;;;-141.84;35.66
15260;BME280;34462;51.368;12.364;2022-07-29T09:29:25;22277.84;;;-141.84;35.26
15260;BME280;34462;51.368;12.364;2022-07-29T09:31:59;22251.41;;;-141.84;35.65
15260;BME280;34462;51.368;12.364;2022-07-29T09:34:28;22290.03;;;-141.84;35.30
15260;BME280;34462;51.368;12.364;2022-07-29T09:36:58;22255.47;;;-141.84;35.25
15260;BME280;34462;51.368;12.364;2022-07-29T09:39:29;22265.63;;;-141.84;35.09
15260;BME280;34462;51.368;12.364;2022-07-29T09:42:01;22273.78;;;-141.84;35.24
15260;BME280;34462;51.368;12.364;2022-07-29T09:44:44;22310.38;;;-141.84;35.23
15260;BME280;34462;51.368;12.364;2022-07-29T09:47:18;22322.56;;;-141.84;35.16
15260;BME280;34462;51.368;12.364;2022-07-29T09:49:55;22346.97;;;-141.84;34.92
15260;BME280;34462;51.368;12.364;2022-07-29T09:52:26;22316.47;;;-141.84;34.85
15260;BME280;34462;51.368;12.364;2022-07-29T09:55:05;22326.66;;;-141.84;35.06
15260;BME280;34462;51.368;12.364;2022-07-29T09:57:33;22393.75;;;-141.84;34.80
15260;BME280;34462;51.368;12.364;2022-07-29T10:00:06;22336.81;;;-141.84;34.49
15260;BME280;34462;51.368;12.364;2022-07-29T10:02:38;22369.34;;;-141.84;34.55
15260;BME280;34462;51.368;12.364;2022-07-29T10:05:18;22363.25;;;-141.84;34.67
15260;BME280;34462;51.368;12.364;2022-07-29T10:07:49;22363.25;;;-141.84;34.63
15260;BME280;34462;51.368;12.364;2022-07-29T10:10:23;22369.34;;;-141.84;34.56
15260;BME280;34462;51.368;12.364;2022-07-29T10:12:55;22385.63;;;-141.84;34.41
15260;BME280;34462;51.368;12.364;2022-07-29T10:15:35;22428.31;;;-141.84;34.07
15260;BME280;34462;51.368;12.364;2022-07-29T10:18:07;22367.31;;;-141.84;34.40
15260;BME280;34462;51.368;12.364;2022-07-29T10:20:36;22424.25;;;-141.84;33.96
15260;BME280;34462;51.368;12.364;2022-07-29T10:23:05;22365.28;;;-141.84;34.21
15260;BME280;34462;51.368;12.364;2022-07-29T10:25:34;22355.13;;;-141.84;34.66
15260;BME280;34462;51.368;12.364;2022-07-29T10:28:02;22403.94;;;-141.84;34.53
15260;BME280;34462;51.368;12.364;2022-07-29T10:30:32;22493.41;;;-141.84;33.77
15260;BME280;34462;51.368;12.364;2022-07-29T10:33:17;22442.56;;;-141.84;33.87
15260;BME280;34462;51.368;12.364;2022-07-29T10:36:18;22481.22;;;-141.84;34.00
15260;BME280;34462;51.368;12.364;2022-07-29T10:39:00;22515.78;;;-141.84;33.71
15260;BME280;34462;51.368;12.364;2022-07-29T10:42:10;22542.22;;;-141.84;33.11
15260;BME280;34462;51.368;12.364;2022-07-29T10:44:43;22481.22;;;-141.84;33.36
15260;BME280;34462;51.368;12.364;2022-07-29T10:47:26;22477.13;;;-141.84;33.47
15260;BME280;34462;51.368;12.364;2022-07-29T10:49:58;22495.44;;;-141.84;33.41
15260;BME280;34462;51.368;12.364;2022-07-29T10:52:57;22503.56;;;-141.84;33.05
15260;BME280;34462;51.368;12.364;2022-07-29T10:55:35;22521.88;;;-141.84;32.60
15260;BME280;34462;51.368;12.364;2022-07-29T10:58:17;22591.03;;;-141.84;32.22
15260;BME280;34462;51.368;12.364;2022-07-29T11:00:47;22595.09;;;-141.84;31.69
15260;BME280;34462;51.368;12.364;2022-07-29T11:03:46;22641.88;;;-141.84;31.24
15260;BME280;34462;51.368;12.364;2022-07-29T11:06:19;22641.88;;;-141.84;30.95
15260;BME280;34462;51.368;12.364;2022-07-29T11:09:17;22684.59;;;-141.84;31.13
15260;BME280;34462;51.368;12.364;2022-07-29T11:12:04;22680.53;;;-141.84;31.49
15260;BME280;34462;51.368;12.364;2022-07-29T11:14:57;22688.66;;;-141.84;31.23
15260;BME280;34462;51.368;12.364;2022-07-29T11:17:26;22658.16;;;-141.84;31.03
15260;BME280;34462;51.368;12.364;2022-07-29T11:20:40;22749.66;;;-141.84;31.21
15260;BME280;34462;51.368;12.364;2022-07-29T11:23:25;22761.88;;;-141.84;30.41
15260;BME280;34462;51.368;12.364;2022-07-29T11:26:17;22790.34;;;-141.84;30.65
15260;BME280;34462;51.368;12.364;2022-07-29T11:28:54;22749.66;;;-141.84;30.94
15260;BME280;34462;51.368;12.364;2022-07-29T11:31:35;22761.88;;;-141.84;30.82
15260;BME280;34462;51.368;12.364;2022-07-29T11:34:19;22824.94;;;-141.84;30.59
15260;BME280;34462;51.368;12.364;2022-07-29T11:37:21;22798.47;;;-141.84;30.40
15260;BME280;34462;51.368;12.364;2022-07-29T11:40:15;22820.84;;;-141.84;30.27
15260;BME280;34462;51.368;12.364;2022-07-29T11:42:46;22837.13;;;-141.84;30.49
15260;BME280;34462;51.368;12.364;2022-07-29T11:45:23;22849.34;;;-141.84;30.43
15260;BME280;34462;51.368;12.364;2022-07-29T11:48:16;22841.19;;;-141.84;30.48
15260;BME280;34462;51.368;12.364;2022-07-29T11:50:57;22885.94;;;-141.84;30.54
15260;BME280;34462;51.368;12.364;2022-07-29T11:53:27;22934.75;;;-141.84;30.15
15260;BME280;34462;51.368;12.364;2022-07-29T11:56:00;22930.69;;;-141.84;30.36
15260;BME280;34462;51.368;12.364;2022-07-29T11:58:30;22908.31;;;-141.84;30.17
15260;BME280;34462;51.368;12.364;2022-07-29T12:01:00;22940.84;;;-141.84;30.03
15260;BME280;34462;51.368;12.364;2022-07-29T12:03:31;22949.00;;;-141.84;30.06
15260;BME280;34462;51.368;12.364;2022-07-29T12:06:03;22940.84;;;-141.84;30.33
15260;BME280;34462;51.368;12.364;2022-07-29T12:08:41;22979.50;;;-141.84;30.56
15260;BME280;34462;51.368;12.364;2022-07-29T12:11:18;22973.41;;;-141.84;30.48
15260;BME280;34462;51.368;12.364;2022-07-29T12:13:50;22989.69;;;-141.84;30.56
15260;BME280;34462;51.368;12.364;2022-07-29T12:16:19;22989.69;;;-141.84;30.67
15260;BME280;34462;51.368;12.364;2022-07-29T12:19:00;23026.28;;;-141.84;30.49
15260;BME280;34462;51.368;12.364;2022-07-29T12:21:43;22997.81;;;-141.84;30.28
15260;BME280;34462;51.368;12.364;2022-07-29T12:24:24;23115.78;;;-141.84;29.98
15260;BME280;34462;51.368;12.364;2022-07-29T12:26:55;23062.91;;;-141.84;30.45
15260;BME280;34462;51.368;12.364;2022-07-29T12:29:25;23081.22;;;-141.84;30.31
15260;BME280;34462;51.368;12.364;2022-07-29T12:32:03;23109.69;;;-141.84;30.31
15260;BME280;34462;51.368;12.364;2022-07-29T12:34:40;23062.91;;;-141.84;30.67
15260;BME280;34462;51.368;12.364;2022-07-29T12:37:09;23132.06;;;-141.84;30.84
15260;BME280;34462;51.368;12.364;2022-07-29T12:39:39;23146.28;;;-141.84;30.78
15260;BME280;34462;51.368;12.364;2022-07-29T12:42:12;23123.94;;;-141.84;30.41
15260;BME280;34462;51.368;12.364;2022-07-29T12:44:49;23097.47;;;-141.84;30.63
15260;BME280;34462;51.368;12.364;2022-07-29T12:47:19;23036.47;;;-141.84;30.76
15260;BME280;34462;51.368;12.364;2022-07-29T12:49:49;23018.16;;;-141.84;30.84
15260;BME280;34462;51.368;12.364;2022-07-29T12:52:25;23069.00;;;-141.84;30.75
15260;BME280;34462;51.368;12.364;2022-07-29T12:54:55;23172.75;;;-141.84;30.55
15260;BME280;34462;51.368;12.364;2022-07-29T12:57:24;23241.91;;;-141.84;30.36
15260;BME280;34462;51.368;12.364;2022-07-29T13:00:05;23284.63;;;-141.84;30.04